BKPR/PRN METAR and TAF weather

Enter ICAO airport designator
Station Type Date Time Source
BKPR METAR 2019/08/24 09:00 UTC NOAA

BKPR 240900Z VRB01KT 9999 FEW050 BKN140 26/12 Q1022 NOSIG


Station Type Date Time Source
BKPR Decoded METAR 2019/08/24 09:00 UTC NOAA

Station name not available
Aug 24, 2019 - 05:00 AM EDT / 2019.08.24 0900 UTC
Wind: Variable at 1 MPH (1 KT):0
Visibility: greater than 7 mile(s):0
Sky conditions: mostly cloudy
Temperature: 78 F (26 C)
Dew Point: 53 F (12 C)
Relative Humidity: 41%
Pressure (altimeter): 30.18 in. Hg (1022 hPa)
ob: BKPR 240900Z VRB01KT 9999 FEW050 BKN140 26/12 Q1022 NOSIG
cycle: 9

Station Type Date Time Source
BKPR TAF 2019/08/24 06:30 UTC NOAA

TAF BKPR 240530Z 2406/2506 VRB03KT 9999 SCT040 SCT120 PROB30
TEMPO 2412/2422 03014KT 5000 -TSRA SCT025CB

Example: see airport list